createdAt,value
2022-11-17T00:00:47.100Z,71.88
2022-11-17T00:03:23.261Z,72.15
2022-11-17T00:09:28.119Z,72.20
2022-11-17T00:11:59.163Z,71.52
2022-11-17T00:14:40.518Z,71.94
2022-11-17T00:17:17.333Z,72.16
2022-11-17T00:19:59.830Z,71.96
2022-11-17T00:23:03.144Z,72.04
2022-11-17T00:25:48.708Z,71.61
2022-11-17T00:38:55.486Z,71.45
2022-11-17T00:41:30.188Z,71.36
2022-11-17T00:44:44.435Z,71.51
2022-11-17T00:50:42.271Z,71.15
2022-11-17T00:53:47.627Z,70.86
2022-11-17T00:56:45.664Z,71.08
2022-11-17T01:00:16.646Z,71.19
2022-11-17T01:05:39.536Z,72.42
2022-11-17T01:08:22.744Z,72.68
2022-11-17T01:11:42.231Z,71.97
2022-11-17T01:14:40.361Z,72.33
2022-11-17T01:17:35.879Z,71.99
2022-11-17T01:20:20.287Z,72.65
2022-11-17T01:22:58.398Z,72.62
2022-11-17T01:25:56.377Z,73.17
2022-11-17T01:31:37.883Z,72.81
2022-11-17T01:34:18.585Z,73.55
2022-11-17T01:40:31.915Z,72.81
2022-11-17T01:46:33.090Z,73.00
2022-11-17T01:49:29.097Z,73.75
2022-11-17T01:52:03.131Z,73.25
2022-11-17T01:54:42.877Z,73.00
2022-11-17T01:57:19.124Z,73.32
2022-11-17T02:00:20.636Z,73.16
2022-11-17T02:02:55.285Z,73.26
2022-11-17T02:09:39.666Z,73.55
2022-11-17T02:12:37.592Z,73.46
2022-11-17T02:15:13.348Z,73.37
2022-11-17T02:18:04.563Z,73.87
2022-11-17T02:20:48.200Z,73.81
2022-11-17T02:23:50.362Z,73.16
2022-11-17T02:26:55.561Z,72.98
2022-11-17T02:29:36.605Z,72.83
2022-11-17T02:32:18.668Z,72.79
2022-11-17T02:34:57.202Z,72.91
2022-11-17T02:37:31.873Z,72.76
2022-11-17T02:40:03.274Z,72.55
2022-11-17T02:42:37.702Z,72.33
2022-11-17T02:45:21.980Z,72.74
2022-11-17T02:47:54.769Z,72.49
2022-11-17T02:50:28.491Z,72.91
2022-11-17T02:53:00.247Z,72.86
2022-11-17T02:55:31.171Z,73.65
2022-11-17T02:58:12.255Z,73.93
2022-11-17T03:01:00.682Z,74.15
2022-11-17T03:03:58.698Z,73.95
2022-11-17T03:06:33.823Z,74.45
2022-11-17T03:09:13.127Z,74.11
2022-11-17T03:11:50.755Z,73.47
2022-11-17T03:14:27.642Z,74.14
2022-11-17T03:17:13.941Z,74.20
2022-11-17T03:19:47.805Z,74.18
2022-11-17T03:22:33.406Z,74.10
2022-11-17T03:25:10.854Z,73.52
2022-11-17T03:27:41.360Z,73.38
2022-11-17T03:30:13.397Z,72.85
2022-11-17T03:32:50.874Z,73.73
2022-11-17T03:35:25.734Z,73.07
2022-11-17T03:38:01.860Z,73.72
2022-11-17T03:40:31.831Z,73.47
2022-11-17T03:43:36.033Z,73.21
2022-11-17T03:46:10.774Z,73.41
2022-11-17T03:48:51.506Z,73.33
2022-11-17T03:51:26.266Z,73.63
2022-11-17T03:54:22.341Z,73.41
2022-11-17T03:57:23.974Z,73.50
2022-11-17T03:59:59.575Z,73.23
2022-11-17T04:02:32.478Z,73.23
2022-11-17T04:05:01.242Z,72.68
2022-11-17T04:07:29.325Z,72.23
2022-11-17T04:09:59.746Z,72.15
2022-11-17T04:12:28.244Z,72.11
2022-11-17T04:14:55.194Z,71.73
2022-11-17T04:17:33.641Z,72.18
2022-11-17T04:21:09.441Z,72.36
2022-11-17T04:23:27.173Z,72.66
2022-11-17T04:25:58.569Z,73.12
2022-11-17T04:28:30.077Z,72.82
2022-11-17T04:30:57.676Z,73.17
2022-11-17T04:33:33.043Z,73.52
2022-11-17T04:36:01.849Z,73.30
2022-11-17T04:38:31.430Z,72.68
2022-11-17T04:41:17.745Z,73.79
2022-11-17T04:43:53.001Z,72.88
2022-11-17T04:46:23.851Z,73.30
2022-11-17T04:48:53.049Z,73.25
2022-11-17T04:51:25.654Z,72.84
2022-11-17T04:54:30.039Z,73.58
2022-11-17T04:57:30.208Z,73.86
2022-11-17T05:00:12.176Z,73.51
2022-11-17T05:02:41.488Z,73.42
2022-11-17T05:05:23.615Z,73.35
2022-11-17T05:11:05.163Z,73.52
2022-11-17T05:13:47.117Z,73.55
2022-11-17T05:16:18.209Z,73.65
2022-11-17T05:18:49.927Z,72.72
2022-11-17T05:21:25.807Z,72.40
2022-11-17T05:23:56.885Z,72.52
2022-11-17T05:26:31.173Z,72.42
2022-11-17T05:29:01.084Z,72.60
2022-11-17T05:31:30.842Z,72.51
2022-11-17T05:34:36.868Z,72.22
2022-11-17T05:37:39.472Z,73.28
2022-11-17T05:40:11.216Z,73.20
2022-11-17T05:42:46.148Z,73.96
2022-11-17T05:45:17.735Z,73.13
2022-11-17T05:47:48.512Z,72.90
2022-11-17T05:50:16.607Z,73.48
2022-11-17T05:56:30.825Z,73.38
2022-11-17T06:05:41.855Z,73.50
2022-11-17T06:11:59.734Z,73.40
2022-11-17T06:14:32.208Z,73.25
2022-11-17T06:17:03.638Z,73.86
2022-11-17T06:19:42.885Z,73.94
2022-11-17T06:22:13.099Z,74.20
2022-11-17T06:41:57.701Z,73.12
2022-11-17T06:44:24.298Z,73.99
2022-11-17T06:46:50.906Z,73.46
2022-11-17T06:49:45.198Z,73.03
2022-11-17T06:52:18.095Z,73.29
2022-11-17T06:55:06.773Z,73.51
2022-11-17T06:57:39.769Z,73.12
2022-11-17T07:00:08.172Z,73.52
2022-11-17T07:02:35.087Z,73.95
2022-11-17T07:05:01.819Z,73.36
2022-11-17T07:23:54.678Z,71.57
2022-11-17T07:26:21.251Z,72.22
2022-11-17T07:28:47.806Z,71.60
2022-11-17T07:31:14.701Z,71.44
2022-11-17T07:33:41.602Z,71.33
2022-11-17T07:37:45.930Z,71.55
2022-11-17T07:47:17.823Z,71.93
2022-11-17T08:01:04.410Z,70.82
2022-11-17T08:15:32.949Z,71.76
2022-11-17T08:21:36.103Z,70.97
2022-11-17T08:30:37.085Z,69.55
2022-11-17T08:40:55.830Z,69.33
2022-11-17T08:44:05.995Z,68.90
2022-11-17T08:50:57.341Z,67.69
2022-11-17T09:01:59.783Z,66.70
2022-11-17T09:35:55.733Z,63.09
2022-11-17T12:18:00.408Z,54.16
2022-11-17T12:20:55.043Z,52.92
2022-11-17T12:23:57.044Z,52.27
2022-11-17T12:26:29.039Z,53.34
2022-11-17T12:29:23.845Z,53.83
2022-11-17T12:31:55.543Z,53.93
2022-11-17T12:34:25.507Z,53.95
2022-11-17T12:40:50.171Z,54.93
2022-11-17T12:43:23.897Z,55.07
2022-11-17T12:46:06.804Z,55.41
2022-11-17T12:48:37.083Z,56.33
2022-11-17T12:51:10.233Z,55.69
2022-11-17T13:10:48.329Z,55.59
2022-11-17T13:13:22.903Z,55.16
2022-11-17T13:15:53.173Z,55.43
2022-11-17T13:18:47.392Z,54.48
2022-11-17T13:21:57.714Z,54.09
2022-11-17T13:25:20.058Z,53.51
2022-11-17T13:28:26.229Z,53.28
2022-11-17T13:45:07.597Z,53.63
2022-11-17T14:50:18.484Z,55.54
2022-11-17T14:52:48.428Z,55.99
2022-11-17T14:58:42.029Z,55.87
2022-11-17T15:04:50.039Z,56.92
2022-11-17T15:14:02.266Z,56.74
2022-11-17T15:20:38.094Z,56.98
2022-11-17T15:24:01.008Z,57.01
2022-11-17T15:42:40.555Z,57.24
2022-11-17T15:45:34.953Z,57.08
2022-11-17T15:48:34.629Z,57.00
2022-11-17T15:54:21.685Z,57.61
2022-11-17T16:43:43.162Z,58.30
2022-11-17T16:46:27.425Z,57.97
2022-11-17T16:49:22.186Z,58.52
2022-11-17T16:51:55.885Z,57.75
2022-11-17T16:55:05.082Z,57.74
2022-11-17T16:58:12.356Z,58.00
2022-11-17T17:00:55.274Z,57.89
2022-11-17T17:03:27.854Z,57.62
2022-11-17T17:09:57.385Z,57.76
2022-11-17T17:12:28.599Z,57.73
2022-11-17T17:16:13.013Z,58.15
2022-11-17T17:19:16.058Z,58.22
2022-11-17T17:22:31.211Z,58.87
2022-11-17T17:25:05.827Z,60.48
2022-11-17T17:35:10.289Z,61.62
2022-11-17T17:37:58.608Z,61.28
2022-11-17T17:40:44.531Z,61.87
2022-11-17T17:43:11.160Z,61.70
2022-11-17T17:45:41.314Z,62.65
2022-11-17T17:48:08.922Z,62.98
2022-11-17T17:54:00.781Z,63.61
2022-11-17T17:56:29.181Z,63.65
2022-11-17T17:59:08.122Z,63.26
2022-11-17T18:01:34.866Z,63.50
2022-11-17T18:04:12.605Z,63.90
2022-11-17T18:06:44.840Z,63.66
2022-11-17T18:09:14.775Z,63.69
2022-11-17T18:11:47.977Z,64.20
2022-11-17T18:14:15.274Z,64.62
2022-11-17T18:16:42.254Z,64.53
2022-11-17T18:19:09.827Z,65.15
2022-11-17T18:21:39.300Z,65.08
2022-11-17T18:24:06.751Z,65.55
2022-11-17T18:26:36.409Z,65.47
2022-11-17T18:29:06.609Z,66.42
2022-11-17T18:31:35.809Z,65.82
2022-11-17T18:34:11.045Z,66.22
2022-11-17T18:36:38.468Z,66.42
2022-11-17T18:39:05.141Z,66.27
2022-11-17T18:41:32.318Z,65.79
2022-11-17T18:44:00.854Z,66.47
2022-11-17T18:46:30.588Z,66.79
2022-11-17T18:49:18.721Z,67.01
2022-11-17T18:51:46.229Z,66.99
2022-11-17T18:54:15.750Z,66.79
2022-11-17T18:56:46.618Z,67.46
2022-11-17T18:59:15.609Z,66.92
2022-11-17T19:01:44.738Z,66.64
2022-11-17T19:04:13.626Z,67.01
2022-11-17T19:06:40.441Z,66.89
2022-11-17T19:09:07.263Z,66.81
2022-11-17T19:11:56.142Z,66.67
2022-11-17T19:14:24.582Z,66.81
2022-11-17T19:16:54.279Z,66.11
2022-11-17T19:30:10.254Z,66.96
2022-11-17T19:32:37.485Z,66.83
2022-11-17T19:35:14.658Z,66.86
2022-11-17T19:37:45.316Z,66.77
2022-11-17T19:40:12.504Z,66.83
2022-11-17T19:42:39.179Z,67.57
2022-11-17T19:45:07.783Z,67.42
2022-11-17T19:47:35.244Z,67.75
2022-11-17T19:50:01.801Z,67.73
2022-11-17T19:52:28.425Z,67.68
2022-11-17T19:55:16.029Z,67.39
2022-11-17T19:57:56.709Z,67.23
2022-11-17T20:00:25.134Z,66.41
2022-11-17T20:02:51.631Z,66.08
2022-11-17T20:05:18.359Z,65.63
2022-11-17T20:07:44.963Z,65.41
2022-11-17T20:10:13.485Z,65.46
2022-11-17T20:12:44.225Z,65.86
2022-11-17T20:15:33.247Z,66.14
2022-11-17T20:18:05.497Z,66.11
2022-11-17T20:20:42.127Z,66.44
2022-11-17T20:23:08.783Z,66.46
2022-11-17T20:25:41.551Z,66.90
2022-11-17T20:28:09.294Z,66.59
2022-11-17T20:30:37.352Z,66.59
2022-11-17T20:33:15.653Z,66.47
2022-11-17T20:35:42.545Z,66.60
2022-11-17T20:38:15.674Z,66.60
2022-11-17T20:40:42.423Z,66.69
2022-11-17T20:43:09.614Z,66.71
2022-11-17T20:45:36.523Z,66.31
2022-11-17T20:48:03.340Z,66.65
2022-11-17T20:53:57.826Z,66.62
2022-11-17T21:06:10.748Z,67.10
2022-11-17T21:08:42.574Z,66.89
2022-11-17T21:11:13.102Z,67.22
2022-11-17T21:13:39.838Z,67.16
2022-11-17T21:16:09.769Z,67.37
2022-11-17T21:18:37.695Z,67.19
2022-11-17T21:21:11.539Z,68.09
2022-11-17T21:24:14.058Z,68.05
2022-11-17T21:26:42.092Z,68.18
2022-11-17T21:29:10.311Z,68.14
2022-11-17T21:31:38.050Z,68.59
2022-11-17T21:37:44.984Z,68.54
2022-11-17T22:23:02.082Z,69.94
2022-11-17T22:25:44.881Z,70.04
2022-11-17T22:28:11.975Z,70.36
2022-11-17T22:30:38.648Z,69.71
2022-11-17T22:33:05.260Z,69.99
2022-11-17T22:35:31.806Z,69.71
2022-11-17T22:37:58.777Z,70.08
2022-11-17T22:40:27.250Z,69.75
2022-11-17T22:42:53.795Z,69.56
2022-11-17T22:45:20.670Z,69.91
2022-11-17T22:47:47.483Z,70.09
2022-11-17T22:50:14.144Z,69.94
2022-11-17T22:52:42.379Z,70.27
2022-11-17T22:55:09.334Z,69.48
2022-11-17T22:57:37.354Z,69.41
2022-11-17T23:00:05.682Z,69.26
2022-11-17T23:02:32.515Z,69.51
2022-11-17T23:04:59.232Z,69.61
2022-11-17T23:07:25.948Z,68.93
2022-11-17T23:09:52.585Z,68.54
2022-11-17T23:12:19.517Z,68.43
2022-11-17T23:14:47.713Z,67.92
2022-11-17T23:17:14.517Z,67.84
2022-11-17T23:19:41.700Z,67.51
2022-11-17T23:22:10.556Z,67.26
2022-11-17T23:24:37.096Z,67.52
2022-11-17T23:27:04.696Z,66.82
2022-11-17T23:29:31.254Z,66.74
2022-11-17T23:31:59.186Z,66.91
2022-11-17T23:34:26.069Z,67.00
2022-11-17T23:36:52.647Z,66.92
2022-11-17T23:39:19.407Z,66.82
2022-11-17T23:41:46.369Z,66.84
2022-11-17T23:44:12.916Z,66.56
2022-11-17T23:46:39.652Z,66.66
2022-11-17T23:49:07.919Z,66.73
2022-11-17T23:51:34.820Z,66.32
2022-11-17T23:54:02.596Z,66.14
2022-11-17T23:56:32.020Z,65.97
2022-11-17T23:59:00.126Z,66.18
